sensor_id;sensor_type;location;lat;lon;timestamp;temperature;humidity
71672;DHT22;62112;45.638;11.714;2022-08-01T00:00:35;29.00;46.80
71672;DHT22;62112;45.638;11.714;2022-08-01T00:03:01;29.10;47.10
71672;DHT22;62112;45.638;11.714;2022-08-01T00:05:27;29.00;47.10
71672;DHT22;62112;45.638;11.714;2022-08-01T00:07:53;29.00;47.20
71672;DHT22;62112;45.638;11.714;2022-08-01T00:10:19;29.00;47.10
71672;DHT22;62112;45.638;11.714;2022-08-01T00:12:45;29.00;47.20
71672;DHT22;62112;45.638;11.714;2022-08-01T00:15:13;29.00;47.20
71672;DHT22;62112;45.638;11.714;2022-08-01T00:17:40;29.00;47.30
71672;DHT22;62112;45.638;11.714;2022-08-01T00:20:09;29.00;47.40
71672;DHT22;62112;45.638;11.714;2022-08-01T00:22:35;29.10;46.00
71672;DHT22;62112;45.638;11.714;2022-08-01T00:25:02;29.00;47.30
71672;DHT22;62112;45.638;11.714;2022-08-01T00:27:28;28.90;47.10
71672;DHT22;62112;45.638;11.714;2022-08-01T00:29:54;29.00;47.50
71672;DHT22;62112;45.638;11.714;2022-08-01T00:32:20;29.00;47.60
71672;DHT22;62112;45.638;11.714;2022-08-01T00:34:46;29.00;47.40
71672;DHT22;62112;45.638;11.714;2022-08-01T00:37:11;29.00;47.70
71672;DHT22;62112;45.638;11.714;2022-08-01T00:39:37;28.90;47.50
71672;DHT22;62112;45.638;11.714;2022-08-01T00:42:07;29.00;47.60
71672;DHT22;62112;45.638;11.714;2022-08-01T00:44:34;29.00;47.90
71672;DHT22;62112;45.638;11.714;2022-08-01T00:47:00;29.00;47.20
71672;DHT22;62112;45.638;11.714;2022-08-01T00:49:27;29.00;47.50
71672;DHT22;62112;45.638;11.714;2022-08-01T00:51:53;29.00;47.30
71672;DHT22;62112;45.638;11.714;2022-08-01T00:54:19;29.00;47.70
71672;DHT22;62112;45.638;11.714;2022-08-01T00:56:45;29.00;47.40
71672;DHT22;62112;45.638;11.714;2022-08-01T00:59:12;28.90;47.50
71672;DHT22;62112;45.638;11.714;2022-08-01T01:01:39;28.90;47.90
71672;DHT22;62112;45.638;11.714;2022-08-01T01:04:05;29.00;47.70
71672;DHT22;62112;45.638;11.714;2022-08-01T01:09:40;28.90;47.90
71672;DHT22;62112;45.638;11.714;2022-08-01T01:12:31;28.90;48.10
71672;DHT22;62112;45.638;11.714;2022-08-01T01:15:38;29.00;48.00
71672;DHT22;62112;45.638;11.714;2022-08-01T01:18:23;28.90;48.10
71672;DHT22;62112;45.638;11.714;2022-08-01T01:29:40;28.90;47.90
71672;DHT22;62112;45.638;11.714;2022-08-01T01:32:29;28.90;48.30
71672;DHT22;62112;45.638;11.714;2022-08-01T01:35:07;28.90;48.20
71672;DHT22;62112;45.638;11.714;2022-08-01T01:37:35;28.90;48.10
71672;DHT22;62112;45.638;11.714;2022-08-01T01:40:05;28.90;48.30
71672;DHT22;62112;45.638;11.714;2022-08-01T01:42:32;28.90;48.20
71672;DHT22;62112;45.638;11.714;2022-08-01T01:45:00;29.00;48.30
71672;DHT22;62112;45.638;11.714;2022-08-01T01:47:28;28.90;48.00
71672;DHT22;62112;45.638;11.714;2022-08-01T01:49:56;28.90;48.30
71672;DHT22;62112;45.638;11.714;2022-08-01T01:52:24;28.90;48.20
71672;DHT22;62112;45.638;11.714;2022-08-01T01:54:51;28.90;48.40
71672;DHT22;62112;45.638;11.714;2022-08-01T01:57:18;28.90;48.40
71672;DHT22;62112;45.638;11.714;2022-08-01T01:59:46;28.90;48.10
71672;DHT22;62112;45.638;11.714;2022-08-01T02:02:14;28.90;48.40
71672;DHT22;62112;45.638;11.714;2022-08-01T02:04:43;28.90;48.10
71672;DHT22;62112;45.638;11.714;2022-08-01T02:07:12;28.80;48.40
71672;DHT22;62112;45.638;11.714;2022-08-01T02:09:42;28.90;48.30
71672;DHT22;62112;45.638;11.714;2022-08-01T02:12:11;28.90;48.00
71672;DHT22;62112;45.638;11.714;2022-08-01T02:14:37;28.90;48.30
71672;DHT22;62112;45.638;11.714;2022-08-01T02:17:05;28.90;48.30
71672;DHT22;62112;45.638;11.714;2022-08-01T02:19:32;28.90;48.10
71672;DHT22;62112;45.638;11.714;2022-08-01T02:22:16;28.90;48.10
71672;DHT22;62112;45.638;11.714;2022-08-01T02:24:57;28.80;48.00
71672;DHT22;62112;45.638;11.714;2022-08-01T02:27:30;28.80;47.90
71672;DHT22;62112;45.638;11.714;2022-08-01T02:30:02;28.80;47.90
71672;DHT22;62112;45.638;11.714;2022-08-01T02:32:51;28.90;47.60
71672;DHT22;62112;45.638;11.714;2022-08-01T02:35:27;28.80;47.90
71672;DHT22;62112;45.638;11.714;2022-08-01T02:37:57;28.90;47.70
71672;DHT22;62112;45.638;11.714;2022-08-01T02:40:24;28.80;47.80
71672;DHT22;62112;45.638;11.714;2022-08-01T02:42:52;28.80;47.90
71672;DHT22;62112;45.638;11.714;2022-08-01T02:45:24;28.80;47.60
71672;DHT22;62112;45.638;11.714;2022-08-01T02:47:51;28.80;47.40
71672;DHT22;62112;45.638;11.714;2022-08-01T02:50:19;28.80;47.50
71672;DHT22;62112;45.638;11.714;2022-08-01T02:52:48;28.80;47.40
71672;DHT22;62112;45.638;11.714;2022-08-01T02:55:17;28.80;47.90
71672;DHT22;62112;45.638;11.714;2022-08-01T02:57:46;28.80;47.50
71672;DHT22;62112;45.638;11.714;2022-08-01T03:00:15;28.80;47.30
71672;DHT22;62112;45.638;11.714;2022-08-01T03:02:42;28.80;47.50
71672;DHT22;62112;45.638;11.714;2022-08-01T03:05:10;28.80;47.30
71672;DHT22;62112;45.638;11.714;2022-08-01T03:07:37;28.80;47.40
71672;DHT22;62112;45.638;11.714;2022-08-01T03:10:05;28.70;47.20
71672;DHT22;62112;45.638;11.714;2022-08-01T03:12:33;28.80;47.20
71672;DHT22;62112;45.638;11.714;2022-08-01T03:15:02;28.80;47.30
71672;DHT22;62112;45.638;11.714;2022-08-01T03:17:29;28.70;47.10
71672;DHT22;62112;45.638;11.714;2022-08-01T03:19:59;28.80;47.20
71672;DHT22;62112;45.638;11.714;2022-08-01T03:22:29;28.80;47.30
71672;DHT22;62112;45.638;11.714;2022-08-01T03:24:59;28.80;47.20
71672;DHT22;62112;45.638;11.714;2022-08-01T03:27:25;28.70;47.10
71672;DHT22;62112;45.638;11.714;2022-08-01T03:29:52;28.70;47.30
71672;DHT22;62112;45.638;11.714;2022-08-01T03:32:21;28.70;46.80
71672;DHT22;62112;45.638;11.714;2022-08-01T03:34:48;28.70;47.10
71672;DHT22;62112;45.638;11.714;2022-08-01T03:37:29;28.70;47.20
71672;DHT22;62112;45.638;11.714;2022-08-01T03:42:39;28.70;47.00
71672;DHT22;62112;45.638;11.714;2022-08-01T03:45:09;28.70;47.00
71672;DHT22;62112;45.638;11.714;2022-08-01T03:47:36;28.80;47.00
71672;DHT22;62112;45.638;11.714;2022-08-01T03:50:06;28.70;47.00
71672;DHT22;62112;45.638;11.714;2022-08-01T03:52:37;28.70;47.10
71672;DHT22;62112;45.638;11.714;2022-08-01T03:55:06;28.70;47.30
71672;DHT22;62112;45.638;11.714;2022-08-01T03:57:35;28.70;47.20
71672;DHT22;62112;45.638;11.714;2022-08-01T04:00:03;28.80;47.30
71672;DHT22;62112;45.638;11.714;2022-08-01T04:02:32;28.70;48.60
71672;DHT22;62112;45.638;11.714;2022-08-01T04:04:59;28.70;49.00
71672;DHT22;62112;45.638;11.714;2022-08-01T04:07:27;28.70;49.50
71672;DHT22;62112;45.638;11.714;2022-08-01T04:09:54;28.70;50.30
71672;DHT22;62112;45.638;11.714;2022-08-01T04:12:20;28.80;50.00
71672;DHT22;62112;45.638;11.714;2022-08-01T04:14:46;28.70;49.80
71672;DHT22;62112;45.638;11.714;2022-08-01T04:17:13;28.70;49.90
71672;DHT22;62112;45.638;11.714;2022-08-01T04:19:39;28.70;49.90
71672;DHT22;62112;45.638;11.714;2022-08-01T04:22:05;28.70;49.60
71672;DHT22;62112;45.638;11.714;2022-08-01T04:24:33;28.80;49.30
71672;DHT22;62112;45.638;11.714;2022-08-01T04:27:01;28.70;49.60
71672;DHT22;62112;45.638;11.714;2022-08-01T04:29:30;28.70;49.50
71672;DHT22;62112;45.638;11.714;2022-08-01T04:31:59;28.70;49.40
71672;DHT22;62112;45.638;11.714;2022-08-01T04:34:28;28.80;49.40
71672;DHT22;62112;45.638;11.714;2022-08-01T04:36:56;28.70;49.30
71672;DHT22;62112;45.638;11.714;2022-08-01T04:39:27;28.80;49.20
71672;DHT22;62112;45.638;11.714;2022-08-01T04:41:55;28.70;49.20
71672;DHT22;62112;45.638;11.714;2022-08-01T04:44:23;28.70;49.20
71672;DHT22;62112;45.638;11.714;2022-08-01T04:46:50;28.80;49.00
71672;DHT22;62112;45.638;11.714;2022-08-01T04:49:20;28.80;48.90
71672;DHT22;62112;45.638;11.714;2022-08-01T04:51:54;28.80;49.00
71672;DHT22;62112;45.638;11.714;2022-08-01T04:54:30;28.80;49.00
71672;DHT22;62112;45.638;11.714;2022-08-01T04:56:59;28.80;49.00
71672;DHT22;62112;45.638;11.714;2022-08-01T04:59:30;28.80;49.00
71672;DHT22;62112;45.638;11.714;2022-08-01T05:02:08;28.90;49.30
71672;DHT22;62112;45.638;11.714;2022-08-01T05:04:35;28.80;49.90
71672;DHT22;62112;45.638;11.714;2022-08-01T05:07:02;28.90;51.00
71672;DHT22;62112;45.638;11.714;2022-08-01T05:09:28;28.80;51.40
71672;DHT22;62112;45.638;11.714;2022-08-01T05:11:54;28.80;51.50
71672;DHT22;62112;45.638;11.714;2022-08-01T05:14:20;28.90;51.10
71672;DHT22;62112;45.638;11.714;2022-08-01T05:16:46;28.80;51.10
71672;DHT22;62112;45.638;11.714;2022-08-01T05:19:12;28.80;51.00
71672;DHT22;62112;45.638;11.714;2022-08-01T05:21:38;28.90;50.90
71672;DHT22;62112;45.638;11.714;2022-08-01T05:24:21;28.90;50.80
71672;DHT22;62112;45.638;11.714;2022-08-01T05:27:06;28.90;50.50
71672;DHT22;62112;45.638;11.714;2022-08-01T05:29:39;28.90;50.20
71672;DHT22;62112;45.638;11.714;2022-08-01T05:32:19;28.90;49.40
71672;DHT22;62112;45.638;11.714;2022-08-01T05:34:48;28.90;48.10
71672;DHT22;62112;45.638;11.714;2022-08-01T05:37:17;28.90;47.70
71672;DHT22;62112;45.638;11.714;2022-08-01T05:39:43;29.00;47.40
71672;DHT22;62112;45.638;11.714;2022-08-01T05:42:09;28.90;47.40
71672;DHT22;62112;45.638;11.714;2022-08-01T05:44:37;28.90;47.10
71672;DHT22;62112;45.638;11.714;2022-08-01T05:47:04;28.90;47.20
71672;DHT22;62112;45.638;11.714;2022-08-01T05:49:30;28.80;47.00
71672;DHT22;62112;45.638;11.714;2022-08-01T05:51:56;28.90;47.00
71672;DHT22;62112;45.638;11.714;2022-08-01T05:54:22;28.90;46.90
71672;DHT22;62112;45.638;11.714;2022-08-01T05:56:48;28.90;46.60
71672;DHT22;62112;45.638;11.714;2022-08-01T05:59:26;28.90;46.50
71672;DHT22;62112;45.638;11.714;2022-08-01T06:02:01;28.90;46.30
71672;DHT22;62112;45.638;11.714;2022-08-01T06:04:32;28.90;46.30
71672;DHT22;62112;45.638;11.714;2022-08-01T06:07:06;28.90;45.90
71672;DHT22;62112;45.638;11.714;2022-08-01T06:09:40;28.90;46.00
71672;DHT22;62112;45.638;11.714;2022-08-01T06:12:24;28.90;45.80
71672;DHT22;62112;45.638;11.714;2022-08-01T06:15:08;29.00;45.80
71672;DHT22;62112;45.638;11.714;2022-08-01T06:17:40;29.00;45.50
71672;DHT22;62112;45.638;11.714;2022-08-01T06:20:09;28.90;45.00
71672;DHT22;62112;45.638;11.714;2022-08-01T06:22:35;29.00;45.00
71672;DHT22;62112;45.638;11.714;2022-08-01T06:25:03;28.90;45.00
71672;DHT22;62112;45.638;11.714;2022-08-01T06:27:38;29.00;44.70
71672;DHT22;62112;45.638;11.714;2022-08-01T06:30:06;29.00;44.90
71672;DHT22;62112;45.638;11.714;2022-08-01T06:32:33;29.00;44.70
71672;DHT22;62112;45.638;11.714;2022-08-01T06:34:59;29.00;44.50
71672;DHT22;62112;45.638;11.714;2022-08-01T06:37:31;29.00;44.70
71672;DHT22;62112;45.638;11.714;2022-08-01T06:40:06;29.10;44.40
71672;DHT22;62112;45.638;11.714;2022-08-01T06:42:33;29.10;44.20
71672;DHT22;62112;45.638;11.714;2022-08-01T06:45:09;29.00;43.70
71672;DHT22;62112;45.638;11.714;2022-08-01T06:47:37;29.10;44.10
71672;DHT22;62112;45.638;11.714;2022-08-01T06:50:05;29.00;43.70
71672;DHT22;62112;45.638;11.714;2022-08-01T06:52:31;29.10;42.60
71672;DHT22;62112;45.638;11.714;2022-08-01T06:54:57;29.10;43.50
71672;DHT22;62112;45.638;11.714;2022-08-01T06:57:27;29.10;42.40
71672;DHT22;62112;45.638;11.714;2022-08-01T07:00:00;29.20;42.00
71672;DHT22;62112;45.638;11.714;2022-08-01T07:02:26;29.10;42.40
71672;DHT22;62112;45.638;11.714;2022-08-01T07:04:52;29.10;42.40
71672;DHT22;62112;45.638;11.714;2022-08-01T07:07:18;29.20;42.20
71672;DHT22;62112;45.638;11.714;2022-08-01T07:09:45;29.20;42.20
71672;DHT22;62112;45.638;11.714;2022-08-01T07:12:11;29.10;42.00
71672;DHT22;62112;45.638;11.714;2022-08-01T07:14:37;29.20;42.10
71672;DHT22;62112;45.638;11.714;2022-08-01T07:17:03;29.20;42.30
71672;DHT22;62112;45.638;11.714;2022-08-01T07:19:32;29.20;42.00
71672;DHT22;62112;45.638;11.714;2022-08-01T07:22:05;29.20;41.90
71672;DHT22;62112;45.638;11.714;2022-08-01T07:24:31;29.30;41.70
71672;DHT22;62112;45.638;11.714;2022-08-01T07:26:57;29.30;41.90
71672;DHT22;62112;45.638;11.714;2022-08-01T07:29:24;29.30;41.60
71672;DHT22;62112;45.638;11.714;2022-08-01T07:31:54;29.30;41.80
71672;DHT22;62112;45.638;11.714;2022-08-01T07:34:22;29.20;41.70
71672;DHT22;62112;45.638;11.714;2022-08-01T07:36:50;29.30;41.90
71672;DHT22;62112;45.638;11.714;2022-08-01T07:39:16;29.30;41.50
71672;DHT22;62112;45.638;11.714;2022-08-01T07:41:42;29.30;42.40
71672;DHT22;62112;45.638;11.714;2022-08-01T07:44:08;29.40;41.80
71672;DHT22;62112;45.638;11.714;2022-08-01T07:46:34;29.30;41.70
71672;DHT22;62112;45.638;11.714;2022-08-01T07:49:00;29.40;41.90
71672;DHT22;62112;45.638;11.714;2022-08-01T07:51:26;29.30;41.80
71672;DHT22;62112;45.638;11.714;2022-08-01T07:53:52;29.30;42.00
71672;DHT22;62112;45.638;11.714;2022-08-01T07:56:18;29.40;41.90
71672;DHT22;62112;45.638;11.714;2022-08-01T07:58:44;29.40;41.70
71672;DHT22;62112;45.638;11.714;2022-08-01T08:01:12;29.30;41.30
71672;DHT22;62112;45.638;11.714;2022-08-01T08:03:39;29.40;41.50
71672;DHT22;62112;45.638;11.714;2022-08-01T08:06:06;29.40;41.50
71672;DHT22;62112;45.638;11.714;2022-08-01T08:08:34;29.40;41.80
71672;DHT22;62112;45.638;11.714;2022-08-01T08:11:01;29.40;41.80
71672;DHT22;62112;45.638;11.714;2022-08-01T08:13:27;29.40;41.60
71672;DHT22;62112;45.638;11.714;2022-08-01T08:15:53;29.40;41.50
71672;DHT22;62112;45.638;11.714;2022-08-01T08:18:19;29.40;41.70
71672;DHT22;62112;45.638;11.714;2022-08-01T08:20:45;29.50;41.60
71672;DHT22;62112;45.638;11.714;2022-08-01T08:23:11;29.40;41.40
71672;DHT22;62112;45.638;11.714;2022-08-01T08:25:55;29.50;41.30
71672;DHT22;62112;45.638;11.714;2022-08-01T08:28:21;29.50;41.40
71672;DHT22;62112;45.638;11.714;2022-08-01T08:30:47;29.50;41.70
71672;DHT22;62112;45.638;11.714;2022-08-01T08:33:13;29.50;41.50
71672;DHT22;62112;45.638;11.714;2022-08-01T08:35:40;29.40;41.30
71672;DHT22;62112;45.638;11.714;2022-08-01T08:38:09;29.50;41.60
71672;DHT22;62112;45.638;11.714;2022-08-01T08:40:36;29.50;41.50
71672;DHT22;62112;45.638;11.714;2022-08-01T08:43:04;29.50;41.60
71672;DHT22;62112;45.638;11.714;2022-08-01T08:45:32;29.50;41.60
71672;DHT22;62112;45.638;11.714;2022-08-01T08:47:59;29.50;41.70
71672;DHT22;62112;45.638;11.714;2022-08-01T08:50:26;29.50;41.60
71672;DHT22;62112;45.638;11.714;2022-08-01T08:52:54;29.60;41.80
71672;DHT22;62112;45.638;11.714;2022-08-01T08:55:29;29.40;41.40
71672;DHT22;62112;45.638;11.714;2022-08-01T08:57:56;29.60;41.80
71672;DHT22;62112;45.638;11.714;2022-08-01T09:00:23;29.50;41.70
71672;DHT22;62112;45.638;11.714;2022-08-01T09:02:48;29.60;41.70
71672;DHT22;62112;45.638;11.714;2022-08-01T09:05:15;29.50;42.10
71672;DHT22;62112;45.638;11.714;2022-08-01T09:07:42;29.50;41.80
71672;DHT22;62112;45.638;11.714;2022-08-01T09:10:08;29.50;42.00
71672;DHT22;62112;45.638;11.714;2022-08-01T09:12:36;29.50;42.20
71672;DHT22;62112;45.638;11.714;2022-08-01T09:15:02;29.60;42.20
71672;DHT22;62112;45.638;11.714;2022-08-01T09:17:39;29.60;42.30
71672;DHT22;62112;45.638;11.714;2022-08-01T09:20:06;29.50;42.50
71672;DHT22;62112;45.638;11.714;2022-08-01T09:22:33;29.60;42.30
71672;DHT22;62112;45.638;11.714;2022-08-01T09:25:06;29.60;42.30
71672;DHT22;62112;45.638;11.714;2022-08-01T09:27:34;29.60;42.30
71672;DHT22;62112;45.638;11.714;2022-08-01T09:30:14;29.60;42.30
71672;DHT22;62112;45.638;11.714;2022-08-01T09:32:54;29.60;42.10
71672;DHT22;62112;45.638;11.714;2022-08-01T09:35:28;29.70;41.90
71672;DHT22;62112;45.638;11.714;2022-08-01T09:38:13;29.60;41.70
71672;DHT22;62112;45.638;11.714;2022-08-01T09:40:56;29.60;41.50
71672;DHT22;62112;45.638;11.714;2022-08-01T09:43:25;29.60;41.10
71672;DHT22;62112;45.638;11.714;2022-08-01T09:45:51;29.70;40.70
71672;DHT22;62112;45.638;11.714;2022-08-01T09:48:18;29.60;40.20
71672;DHT22;62112;45.638;11.714;2022-08-01T09:50:46;29.60;40.20
71672;DHT22;62112;45.638;11.714;2022-08-01T09:53:13;29.60;40.40
71672;DHT22;62112;45.638;11.714;2022-08-01T09:55:40;29.60;40.00
71672;DHT22;62112;45.638;11.714;2022-08-01T09:58:07;29.60;39.80
71672;DHT22;62112;45.638;11.714;2022-08-01T10:00:41;29.70;39.70
71672;DHT22;62112;45.638;11.714;2022-08-01T10:03:24;29.60;39.90
71672;DHT22;62112;45.638;11.714;2022-08-01T10:05:50;29.60;39.50
71672;DHT22;62112;45.638;11.714;2022-08-01T10:08:17;29.60;39.90
71672;DHT22;62112;45.638;11.714;2022-08-01T10:11:12;29.70;39.90
71672;DHT22;62112;45.638;11.714;2022-08-01T10:13:39;29.60;40.50
71672;DHT22;62112;45.638;11.714;2022-08-01T10:16:06;29.70;40.50
71672;DHT22;62112;45.638;11.714;2022-08-01T10:18:34;29.60;40.10
71672;DHT22;62112;45.638;11.714;2022-08-01T10:21:02;29.70;39.90
71672;DHT22;62112;45.638;11.714;2022-08-01T10:23:33;29.60;40.60
71672;DHT22;62112;45.638;11.714;2022-08-01T10:26:00;29.60;40.60
71672;DHT22;62112;45.638;11.714;2022-08-01T10:28:30;29.60;40.50
71672;DHT22;62112;45.638;11.714;2022-08-01T10:30:59;29.70;40.40
71672;DHT22;62112;45.638;11.714;2022-08-01T10:33:25;29.60;41.00
71672;DHT22;62112;45.638;11.714;2022-08-01T10:35:51;29.60;40.90
71672;DHT22;62112;45.638;11.714;2022-08-01T10:38:17;29.60;41.00
71672;DHT22;62112;45.638;11.714;2022-08-01T10:40:43;29.60;40.70
71672;DHT22;62112;45.638;11.714;2022-08-01T10:43:10;29.60;40.60
71672;DHT22;62112;45.638;11.714;2022-08-01T10:45:37;29.60;40.50
71672;DHT22;62112;45.638;11.714;2022-08-01T10:48:09;29.50;40.40
71672;DHT22;62112;45.638;11.714;2022-08-01T10:50:42;29.50;40.20
71672;DHT22;62112;45.638;11.714;2022-08-01T10:53:23;29.60;40.40
71672;DHT22;62112;45.638;11.714;2022-08-01T10:55:52;29.60;40.10
71672;DHT22;62112;45.638;11.714;2022-08-01T10:58:36;29.60;39.70
71672;DHT22;62112;45.638;11.714;2022-08-01T11:04:11;29.50;39.70
71672;DHT22;62112;45.638;11.714;2022-08-01T11:06:46;29.60;39.50
71672;DHT22;62112;45.638;11.714;2022-08-01T11:12:00;29.50;39.20
71672;DHT22;62112;45.638;11.714;2022-08-01T11:14:30;29.60;39.40
71672;DHT22;62112;45.638;11.714;2022-08-01T11:17:38;29.50;39.00
71672;DHT22;62112;45.638;11.714;2022-08-01T11:28:27;29.60;38.60
71672;DHT22;62112;45.638;11.714;2022-08-01T11:38:49;29.50;38.70
71672;DHT22;62112;45.638;11.714;2022-08-01T11:41:15;29.50;39.10
71672;DHT22;62112;45.638;11.714;2022-08-01T11:44:04;29.50;38.30
71672;DHT22;62112;45.638;11.714;2022-08-01T11:47:04;29.50;38.30
71672;DHT22;62112;45.638;11.714;2022-08-01T11:52:18;29.40;38.00
71672;DHT22;62112;45.638;11.714;2022-08-01T11:54:53;29.40;37.60
71672;DHT22;62112;45.638;11.714;2022-08-01T11:57:21;29.50;38.00
71672;DHT22;62112;45.638;11.714;2022-08-01T12:02:23;29.40;37.60
71672;DHT22;62112;45.638;11.714;2022-08-01T12:04:59;29.40;37.60
71672;DHT22;62112;45.638;11.714;2022-08-01T12:07:28;29.40;37.40
71672;DHT22;62112;45.638;11.714;2022-08-01T12:10:00;29.40;37.50
71672;DHT22;62112;45.638;11.714;2022-08-01T12:12:27;29.40;37.30
71672;DHT22;62112;45.638;11.714;2022-08-01T12:14:56;29.30;37.00
71672;DHT22;62112;45.638;11.714;2022-08-01T12:17:40;29.40;37.40
71672;DHT22;62112;45.638;11.714;2022-08-01T12:20:10;29.40;36.80
71672;DHT22;62112;45.638;11.714;2022-08-01T12:22:36;29.40;37.10
71672;DHT22;62112;45.638;11.714;2022-08-01T12:25:11;29.30;36.80
71672;DHT22;62112;45.638;11.714;2022-08-01T12:27:39;29.30;37.30
71672;DHT22;62112;45.638;11.714;2022-08-01T12:30:07;29.30;36.70
71672;DHT22;62112;45.638;11.714;2022-08-01T12:32:35;29.30;36.60
71672;DHT22;62112;45.638;11.714;2022-08-01T12:35:08;29.30;37.20
71672;DHT22;62112;45.638;11.714;2022-08-01T12:37:38;29.40;36.90
71672;DHT22;62112;45.638;11.714;2022-08-01T12:40:19;29.30;36.80
71672;DHT22;62112;45.638;11.714;2022-08-01T12:42:51;29.30;36.70
71672;DHT22;62112;45.638;11.714;2022-08-01T12:45:20;29.30;36.70
71672;DHT22;62112;45.638;11.714;2022-08-01T12:47:55;29.30;36.80
71672;DHT22;62112;45.638;11.714;2022-08-01T12:50:34;29.30;36.40
71672;DHT22;62112;45.638;11.714;2022-08-01T12:53:09;29.30;36.40
71672;DHT22;62112;45.638;11.714;2022-08-01T12:55:47;29.30;36.40
71672;DHT22;62112;45.638;11.714;2022-08-01T12:58:16;29.30;36.40
71672;DHT22;62112;45.638;11.714;2022-08-01T13:00:44;29.30;36.60
71672;DHT22;62112;45.638;11.714;2022-08-01T13:03:18;29.30;36.30
71672;DHT22;62112;45.638;11.714;2022-08-01T13:05:49;29.20;36.30
71672;DHT22;62112;45.638;11.714;2022-08-01T13:08:18;29.30;36.30
71672;DHT22;62112;45.638;11.714;2022-08-01T13:10:45;29.30;36.30
71672;DHT22;62112;45.638;11.714;2022-08-01T13:13:12;29.20;36.10
71672;DHT22;62112;45.638;11.714;2022-08-01T13:15:40;29.20;36.40
71672;DHT22;62112;45.638;11.714;2022-08-01T13:18:29;29.20;36.40
71672;DHT22;62112;45.638;11.714;2022-08-01T13:21:12;29.20;36.50
71672;DHT22;62112;45.638;11.714;2022-08-01T13:24:26;29.20;35.80
71672;DHT22;62112;45.638;11.714;2022-08-01T13:26:50;29.20;35.80
71672;DHT22;62112;45.638;11.714;2022-08-01T13:29:21;29.20;36.10
71672;DHT22;62112;45.638;11.714;2022-08-01T13:31:49;29.20;36.10
71672;DHT22;62112;45.638;11.714;2022-08-01T13:34:15;29.10;35.50
71672;DHT22;62112;45.638;11.714;2022-08-01T13:36:42;29.10;35.80
71672;DHT22;62112;45.638;11.714;2022-08-01T13:39:09;29.20;35.70
71672;DHT22;62112;45.638;11.714;2022-08-01T13:41:59;29.10;35.50
71672;DHT22;62112;45.638;11.714;2022-08-01T13:44:30;29.20;36.00
71672;DHT22;62112;45.638;11.714;2022-08-01T13:46:56;29.10;36.00
71672;DHT22;62112;45.638;11.714;2022-08-01T13:49:22;29.20;35.50
71672;DHT22;62112;45.638;11.714;2022-08-01T13:51:49;29.10;36.40
71672;DHT22;62112;45.638;11.714;2022-08-01T13:54:19;29.10;36.90
71672;DHT22;62112;45.638;11.714;2022-08-01T13:56:49;29.10;35.80
71672;DHT22;62112;45.638;11.714;2022-08-01T13:59:16;29.20;35.20
71672;DHT22;62112;45.638;11.714;2022-08-01T14:01:42;29.20;34.90
71672;DHT22;62112;45.638;11.714;2022-08-01T14:04:07;29.10;36.00
71672;DHT22;62112;45.638;11.714;2022-08-01T14:06:34;29.10;36.30
71672;DHT22;62112;45.638;11.714;2022-08-01T14:09:04;29.10;35.30
71672;DHT22;62112;45.638;11.714;2022-08-01T14:11:31;29.10;35.10
71672;DHT22;62112;45.638;11.714;2022-08-01T14:13:57;29.10;35.00
71672;DHT22;62112;45.638;11.714;2022-08-01T14:16:23;29.10;34.90
71672;DHT22;62112;45.638;11.714;2022-08-01T14:18:49;29.10;35.60
71672;DHT22;62112;45.638;11.714;2022-08-01T14:21:15;29.10;34.80
71672;DHT22;62112;45.638;11.714;2022-08-01T14:23:42;29.10;34.80
71672;DHT22;62112;45.638;11.714;2022-08-01T14:26:09;29.00;35.70
71672;DHT22;62112;45.638;11.714;2022-08-01T14:28:36;29.10;35.10
71672;DHT22;62112;45.638;11.714;2022-08-01T14:31:02;29.10;35.40
71672;DHT22;62112;45.638;11.714;2022-08-01T14:33:28;29.00;35.70
71672;DHT22;62112;45.638;11.714;2022-08-01T14:35:54;29.10;35.20
71672;DHT22;62112;45.638;11.714;2022-08-01T14:38:20;29.10;35.20
71672;DHT22;62112;45.638;11.714;2022-08-01T14:40:46;29.10;35.80
71672;DHT22;62112;45.638;11.714;2022-08-01T14:43:17;29.10;35.70
71672;DHT22;62112;45.638;11.714;2022-08-01T14:45:43;29.10;35.60
71672;DHT22;62112;45.638;11.714;2022-08-01T14:48:09;29.00;36.80
71672;DHT22;62112;45.638;11.714;2022-08-01T14:50:35;29.10;35.80
71672;DHT22;62112;45.638;11.714;2022-08-01T14:53:02;29.10;35.90
71672;DHT22;62112;45.638;11.714;2022-08-01T14:55:28;29.10;35.80
71672;DHT22;62112;45.638;11.714;2022-08-01T14:57:54;29.20;35.50
71672;DHT22;62112;45.638;11.714;2022-08-01T15:00:20;29.20;36.00
71672;DHT22;62112;45.638;11.714;2022-08-01T15:02:47;29.20;35.70
71672;DHT22;62112;45.638;11.714;2022-08-01T15:05:12;29.10;35.80
71672;DHT22;62112;45.638;11.714;2022-08-01T15:07:38;29.10;35.90
71672;DHT22;62112;45.638;11.714;2022-08-01T15:10:13;29.10;35.60
71672;DHT22;62112;45.638;11.714;2022-08-01T15:12:41;29.10;35.30
71672;DHT22;62112;45.638;11.714;2022-08-01T15:15:07;29.10;35.40
71672;DHT22;62112;45.638;11.714;2022-08-01T15:17:33;29.10;35.20
71672;DHT22;62112;45.638;11.714;2022-08-01T15:20:01;29.10;35.40
71672;DHT22;62112;45.638;11.714;2022-08-01T15:22:29;29.20;35.30
71672;DHT22;62112;45.638;11.714;2022-08-01T15:24:57;29.10;35.20
71672;DHT22;62112;45.638;11.714;2022-08-01T15:27:25;29.10;35.30
71672;DHT22;62112;45.638;11.714;2022-08-01T15:29:51;29.10;34.90
71672;DHT22;62112;45.638;11.714;2022-08-01T15:32:17;29.20;34.90
71672;DHT22;62112;45.638;11.714;2022-08-01T15:34:43;29.20;35.10
71672;DHT22;62112;45.638;11.714;2022-08-01T15:37:11;29.10;35.30
71672;DHT22;62112;45.638;11.714;2022-08-01T15:39:38;29.00;36.00
71672;DHT22;62112;45.638;11.714;2022-08-01T15:42:06;29.10;34.90
71672;DHT22;62112;45.638;11.714;2022-08-01T15:44:32;29.10;34.90
71672;DHT22;62112;45.638;11.714;2022-08-01T15:46:59;29.10;35.50
71672;DHT22;62112;45.638;11.714;2022-08-01T15:49:26;29.10;34.70
71672;DHT22;62112;45.638;11.714;2022-08-01T15:51:53;29.20;34.60
71672;DHT22;62112;45.638;11.714;2022-08-01T15:54:19;29.10;35.10
71672;DHT22;62112;45.638;11.714;2022-08-01T15:56:45;29.20;35.30
71672;DHT22;62112;45.638;11.714;2022-08-01T15:59:11;29.20;35.70
71672;DHT22;62112;45.638;11.714;2022-08-01T16:01:37;29.20;35.60
71672;DHT22;62112;45.638;11.714;2022-08-01T16:04:04;29.20;35.50
71672;DHT22;62112;45.638;11.714;2022-08-01T16:06:30;29.20;36.10
71672;DHT22;62112;45.638;11.714;2022-08-01T16:08:56;29.30;35.60
71672;DHT22;62112;45.638;11.714;2022-08-01T16:11:23;29.30;35.80